sensor_id;sensor_type;location;lat;lon;timestamp;P1;durP1;ratioP1;P2;durP2;ratioP2
41572;SDS011;27286;47.870;19.006;2023-12-04T00:00:24;9.25;;;4.60;;
41572;SDS011;27286;47.870;19.006;2023-12-04T00:02:49;8.45;;;3.42;;
41572;SDS011;27286;47.870;19.006;2023-12-04T00:05:15;7.38;;;3.05;;
41572;SDS011;27286;47.870;19.006;2023-12-04T00:07:40;7.07;;;2.78;;
41572;SDS011;27286;47.870;19.006;2023-12-04T00:10:06;8.00;;;3.42;;
41572;SDS011;27286;47.870;19.006;2023-12-04T00:12:31;6.93;;;3.30;;
41572;SDS011;27286;47.870;19.006;2023-12-04T00:14:57;6.63;;;3.03;;
41572;SDS011;27286;47.870;19.006;2023-12-04T00:17:22;6.95;;;2.95;;
41572;SDS011;27286;47.870;19.006;2023-12-04T00:19:47;4.72;;;2.40;;
41572;SDS011;27286;47.870;19.006;2023-12-04T00:22:13;11.02;;;3.85;;
41572;SDS011;27286;47.870;19.006;2023-12-04T00:24:38;3.53;;;1.17;;
41572;SDS011;27286;47.870;19.006;2023-12-04T00:27:04;9.15;;;3.38;;
41572;SDS011;27286;47.870;19.006;2023-12-04T00:29:29;6.30;;;2.58;;
41572;SDS011;27286;47.870;19.006;2023-12-04T00:31:55;8.07;;;3.42;;
41572;SDS011;27286;47.870;19.006;2023-12-04T00:34:22;9.20;;;4.10;;
41572;SDS011;27286;47.870;19.006;2023-12-04T00:36:47;8.45;;;3.75;;
41572;SDS011;27286;47.870;19.006;2023-12-04T00:39:13;8.07;;;2.63;;
41572;SDS011;27286;47.870;19.006;2023-12-04T00:41:38;7.82;;;3.05;;
41572;SDS011;27286;47.870;19.006;2023-12-04T00:44:03;7.30;;;3.30;;
41572;SDS011;27286;47.870;19.006;2023-12-04T00:46:29;6.47;;;1.92;;
41572;SDS011;27286;47.870;19.006;2023-12-04T00:48:54;4.93;;;2.00;;
41572;SDS011;27286;47.870;19.006;2023-12-04T00:51:20;6.82;;;3.25;;
41572;SDS011;27286;47.870;19.006;2023-12-04T00:53:45;13.15;;;4.07;;
41572;SDS011;27286;47.870;19.006;2023-12-04T00:56:11;7.25;;;3.25;;
41572;SDS011;27286;47.870;19.006;2023-12-04T00:58:36;6.15;;;2.28;;
41572;SDS011;27286;47.870;19.006;2023-12-04T01:01:01;6.35;;;3.08;;
41572;SDS011;27286;47.870;19.006;2023-12-04T01:03:27;9.15;;;3.38;;
41572;SDS011;27286;47.870;19.006;2023-12-04T01:05:52;11.57;;;5.80;;
41572;SDS011;27286;47.870;19.006;2023-12-04T01:08:18;3.55;;;1.80;;
41572;SDS011;27286;47.870;19.006;2023-12-04T01:10:43;7.60;;;2.53;;
41572;SDS011;27286;47.870;19.006;2023-12-04T01:13:08;5.38;;;2.85;;
41572;SDS011;27286;47.870;19.006;2023-12-04T01:15:34;5.90;;;2.78;;
41572;SDS011;27286;47.870;19.006;2023-12-04T01:18:00;8.35;;;3.50;;
41572;SDS011;27286;47.870;19.006;2023-12-04T01:20:25;6.68;;;2.45;;
41572;SDS011;27286;47.870;19.006;2023-12-04T01:22:51;6.43;;;2.63;;
41572;SDS011;27286;47.870;19.006;2023-12-04T01:25:17;5.78;;;1.80;;
41572;SDS011;27286;47.870;19.006;2023-12-04T01:27:42;6.53;;;2.53;;
41572;SDS011;27286;47.870;19.006;2023-12-04T01:30:07;7.22;;;2.55;;
41572;SDS011;27286;47.870;19.006;2023-12-04T01:32:34;8.93;;;3.13;;
41572;SDS011;27286;47.870;19.006;2023-12-04T01:34:59;8.57;;;2.38;;
41572;SDS011;27286;47.870;19.006;2023-12-04T01:37:25;8.15;;;3.58;;
41572;SDS011;27286;47.870;19.006;2023-12-04T01:39:50;7.90;;;4.22;;
41572;SDS011;27286;47.870;19.006;2023-12-04T01:42:16;6.65;;;1.75;;
41572;SDS011;27286;47.870;19.006;2023-12-04T01:44:41;4.78;;;1.75;;
41572;SDS011;27286;47.870;19.006;2023-12-04T01:47:07;6.63;;;2.38;;
41572;SDS011;27286;47.870;19.006;2023-12-04T01:49:32;8.52;;;3.20;;
41572;SDS011;27286;47.870;19.006;2023-12-04T01:51:58;5.13;;;2.75;;
41572;SDS011;27286;47.870;19.006;2023-12-04T01:54:24;7.40;;;2.53;;
41572;SDS011;27286;47.870;19.006;2023-12-04T01:56:50;4.30;;;1.27;;
41572;SDS011;27286;47.870;19.006;2023-12-04T01:59:15;5.95;;;2.17;;
41572;SDS011;27286;47.870;19.006;2023-12-04T02:01:41;7.22;;;3.03;;
41572;SDS011;27286;47.870;19.006;2023-12-04T02:04:07;7.03;;;2.47;;
41572;SDS011;27286;47.870;19.006;2023-12-04T02:06:33;5.32;;;2.03;;
41572;SDS011;27286;47.870;19.006;2023-12-04T02:08:59;11.25;;;2.45;;
41572;SDS011;27286;47.870;19.006;2023-12-04T02:11:25;12.13;;;5.00;;
41572;SDS011;27286;47.870;19.006;2023-12-04T02:13:50;18.33;;;6.32;;
41572;SDS011;27286;47.870;19.006;2023-12-04T02:16:16;12.07;;;5.63;;
41572;SDS011;27286;47.870;19.006;2023-12-04T02:18:44;14.30;;;6.45;;
41572;SDS011;27286;47.870;19.006;2023-12-04T02:21:10;18.50;;;6.85;;
41572;SDS011;27286;47.870;19.006;2023-12-04T02:23:36;14.30;;;6.13;;
41572;SDS011;27286;47.870;19.006;2023-12-04T02:26:12;9.88;;;5.03;;
41572;SDS011;27286;47.870;19.006;2023-12-04T02:28:41;7.80;;;3.45;;
41572;SDS011;27286;47.870;19.006;2023-12-04T02:31:15;6.47;;;3.13;;
41572;SDS011;27286;47.870;19.006;2023-12-04T02:33:43;7.03;;;2.78;;
41572;SDS011;27286;47.870;19.006;2023-12-04T02:36:11;8.60;;;3.58;;
41572;SDS011;27286;47.870;19.006;2023-12-04T02:38:38;11.02;;;4.05;;
41572;SDS011;27286;47.870;19.006;2023-12-04T02:41:04;7.00;;;3.40;;
41572;SDS011;27286;47.870;19.006;2023-12-04T02:43:29;8.55;;;3.50;;
41572;SDS011;27286;47.870;19.006;2023-12-04T02:45:55;10.73;;;4.20;;
41572;SDS011;27286;47.870;19.006;2023-12-04T02:48:20;9.48;;;3.97;;
41572;SDS011;27286;47.870;19.006;2023-12-04T02:50:46;8.55;;;2.95;;
41572;SDS011;27286;47.870;19.006;2023-12-04T02:53:11;6.28;;;2.67;;
41572;SDS011;27286;47.870;19.006;2023-12-04T02:55:36;8.05;;;3.65;;
41572;SDS011;27286;47.870;19.006;2023-12-04T02:58:02;8.90;;;3.97;;
41572;SDS011;27286;47.870;19.006;2023-12-04T03:00:27;9.02;;;3.75;;
41572;SDS011;27286;47.870;19.006;2023-12-04T03:02:52;7.35;;;2.97;;
41572;SDS011;27286;47.870;19.006;2023-12-04T03:05:19;9.68;;;3.17;;
41572;SDS011;27286;47.870;19.006;2023-12-04T03:07:44;8.45;;;3.50;;
41572;SDS011;27286;47.870;19.006;2023-12-04T03:10:10;6.43;;;3.13;;
41572;SDS011;27286;47.870;19.006;2023-12-04T03:12:36;7.03;;;2.58;;
41572;SDS011;27286;47.870;19.006;2023-12-04T03:15:01;5.68;;;2.38;;
41572;SDS011;27286;47.870;19.006;2023-12-04T03:17:27;6.35;;;2.60;;
41572;SDS011;27286;47.870;19.006;2023-12-04T03:19:52;3.85;;;1.40;;
41572;SDS011;27286;47.870;19.006;2023-12-04T03:22:18;6.45;;;2.17;;
41572;SDS011;27286;47.870;19.006;2023-12-04T03:24:43;3.13;;;1.10;;
41572;SDS011;27286;47.870;19.006;2023-12-04T03:27:08;6.43;;;2.55;;
41572;SDS011;27286;47.870;19.006;2023-12-04T03:29:34;4.63;;;1.75;;
41572;SDS011;27286;47.870;19.006;2023-12-04T03:31:59;7.53;;;2.55;;
41572;SDS011;27286;47.870;19.006;2023-12-04T03:34:25;6.75;;;2.63;;
41572;SDS011;27286;47.870;19.006;2023-12-04T03:36:50;3.15;;;1.00;;
41572;SDS011;27286;47.870;19.006;2023-12-04T03:39:16;7.22;;;2.00;;
41572;SDS011;27286;47.870;19.006;2023-12-04T03:41:41;5.68;;;2.08;;
41572;SDS011;27286;47.870;19.006;2023-12-04T03:44:06;7.75;;;2.72;;
41572;SDS011;27286;47.870;19.006;2023-12-04T03:46:32;8.80;;;3.00;;
41572;SDS011;27286;47.870;19.006;2023-12-04T03:48:57;7.50;;;2.42;;
41572;SDS011;27286;47.870;19.006;2023-12-04T03:51:23;7.55;;;2.70;;
41572;SDS011;27286;47.870;19.006;2023-12-04T03:53:48;4.00;;;1.63;;
41572;SDS011;27286;47.870;19.006;2023-12-04T03:56:14;7.88;;;3.20;;
41572;SDS011;27286;47.870;19.006;2023-12-04T03:58:39;6.55;;;1.85;;
41572;SDS011;27286;47.870;19.006;2023-12-04T04:01:04;5.47;;;2.30;;
41572;SDS011;27286;47.870;19.006;2023-12-04T04:03:30;8.32;;;2.42;;
41572;SDS011;27286;47.870;19.006;2023-12-04T04:05:55;6.20;;;2.47;;
41572;SDS011;27286;47.870;19.006;2023-12-04T04:08:21;11.25;;;4.78;;
41572;SDS011;27286;47.870;19.006;2023-12-04T04:10:46;7.35;;;3.17;;
41572;SDS011;27286;47.870;19.006;2023-12-04T04:13:11;8.45;;;4.07;;
41572;SDS011;27286;47.870;19.006;2023-12-04T04:15:37;18.55;;;8.00;;
41572;SDS011;27286;47.870;19.006;2023-12-04T04:18:02;13.05;;;6.75;;
41572;SDS011;27286;47.870;19.006;2023-12-04T04:20:28;13.57;;;6.88;;
41572;SDS011;27286;47.870;19.006;2023-12-04T04:22:53;9.35;;;3.70;;
41572;SDS011;27286;47.870;19.006;2023-12-04T04:25:19;9.98;;;4.55;;
41572;SDS011;27286;47.870;19.006;2023-12-04T04:27:46;13.02;;;4.70;;
41572;SDS011;27286;47.870;19.006;2023-12-04T04:30:12;7.10;;;3.80;;
41572;SDS011;27286;47.870;19.006;2023-12-04T04:32:38;6.38;;;3.60;;
41572;SDS011;27286;47.870;19.006;2023-12-04T04:35:04;9.07;;;3.38;;
41572;SDS011;27286;47.870;19.006;2023-12-04T04:37:29;10.57;;;3.97;;
41572;SDS011;27286;47.870;19.006;2023-12-04T04:39:55;11.35;;;4.82;;
41572;SDS011;27286;47.870;19.006;2023-12-04T04:42:21;6.95;;;2.70;;
41572;SDS011;27286;47.870;19.006;2023-12-04T04:44:47;8.43;;;3.58;;
41572;SDS011;27286;47.870;19.006;2023-12-04T04:47:12;9.38;;;3.90;;
41572;SDS011;27286;47.870;19.006;2023-12-04T04:49:38;8.90;;;3.63;;
41572;SDS011;27286;47.870;19.006;2023-12-04T04:52:03;7.55;;;3.78;;
41572;SDS011;27286;47.870;19.006;2023-12-04T04:54:32;11.10;;;4.85;;
41572;SDS011;27286;47.870;19.006;2023-12-04T04:56:58;9.85;;;3.72;;
41572;SDS011;27286;47.870;19.006;2023-12-04T04:59:23;12.25;;;6.10;;
41572;SDS011;27286;47.870;19.006;2023-12-04T05:01:48;15.82;;;5.95;;
41572;SDS011;27286;47.870;19.006;2023-12-04T05:04:14;7.75;;;2.63;;
41572;SDS011;27286;47.870;19.006;2023-12-04T05:06:39;6.05;;;2.35;;
41572;SDS011;27286;47.870;19.006;2023-12-04T05:09:05;4.88;;;1.98;;
41572;SDS011;27286;47.870;19.006;2023-12-04T05:11:30;8.27;;;3.53;;
41572;SDS011;27286;47.870;19.006;2023-12-04T05:13:56;8.25;;;3.25;;
41572;SDS011;27286;47.870;19.006;2023-12-04T05:16:21;5.68;;;2.30;;
41572;SDS011;27286;47.870;19.006;2023-12-04T05:18:47;6.38;;;2.95;;
41572;SDS011;27286;47.870;19.006;2023-12-04T05:21:12;8.38;;;3.22;;
41572;SDS011;27286;47.870;19.006;2023-12-04T05:23:37;6.82;;;2.03;;
41572;SDS011;27286;47.870;19.006;2023-12-04T05:26:03;2.95;;;1.65;;
41572;SDS011;27286;47.870;19.006;2023-12-04T05:28:30;4.35;;;1.90;;
41572;SDS011;27286;47.870;19.006;2023-12-04T05:30:56;5.38;;;2.45;;
41572;SDS011;27286;47.870;19.006;2023-12-04T05:33:21;7.22;;;2.92;;
41572;SDS011;27286;47.870;19.006;2023-12-04T05:35:50;17.75;;;7.75;;
41572;SDS011;27286;47.870;19.006;2023-12-04T05:38:18;20.08;;;8.88;;
41572;SDS011;27286;47.870;19.006;2023-12-04T05:40:44;18.20;;;8.25;;
41572;SDS011;27286;47.870;19.006;2023-12-04T05:43:09;20.30;;;8.70;;
41572;SDS011;27286;47.870;19.006;2023-12-04T05:45:35;14.65;;;5.70;;
41572;SDS011;27286;47.870;19.006;2023-12-04T05:48:00;9.98;;;3.78;;
41572;SDS011;27286;47.870;19.006;2023-12-04T05:50:26;7.70;;;3.20;;
41572;SDS011;27286;47.870;19.006;2023-12-04T05:52:51;7.35;;;2.95;;
41572;SDS011;27286;47.870;19.006;2023-12-04T05:55:17;4.80;;;1.98;;
41572;SDS011;27286;47.870;19.006;2023-12-04T05:57:43;7.35;;;2.70;;
41572;SDS011;27286;47.870;19.006;2023-12-04T06:00:09;5.93;;;2.13;;
41572;SDS011;27286;47.870;19.006;2023-12-04T06:02:37;7.43;;;3.78;;
41572;SDS011;27286;47.870;19.006;2023-12-04T06:05:10;12.18;;;3.08;;
41572;SDS011;27286;47.870;19.006;2023-12-04T06:07:36;11.35;;;4.07;;
41572;SDS011;27286;47.870;19.006;2023-12-04T06:10:02;8.60;;;3.97;;
41572;SDS011;27286;47.870;19.006;2023-12-04T06:12:31;11.73;;;4.75;;
41572;SDS011;27286;47.870;19.006;2023-12-04T06:14:57;18.25;;;7.82;;
41572;SDS011;27286;47.870;19.006;2023-12-04T06:17:23;31.60;;;12.95;;
41572;SDS011;27286;47.870;19.006;2023-12-04T06:19:49;30.35;;;14.68;;
41572;SDS011;27286;47.870;19.006;2023-12-04T06:22:14;31.75;;;14.38;;
41572;SDS011;27286;47.870;19.006;2023-12-04T06:24:42;22.00;;;11.63;;
41572;SDS011;27286;47.870;19.006;2023-12-04T06:27:08;24.65;;;11.55;;
41572;SDS011;27286;47.870;19.006;2023-12-04T06:29:37;31.63;;;15.43;;
41572;SDS011;27286;47.870;19.006;2023-12-04T06:32:03;30.80;;;13.27;;
41572;SDS011;27286;47.870;19.006;2023-12-04T06:34:29;46.50;;;18.90;;
41572;SDS011;27286;47.870;19.006;2023-12-04T06:36:55;55.97;;;25.20;;
41572;SDS011;27286;47.870;19.006;2023-12-04T06:39:21;73.78;;;26.88;;
41572;SDS011;27286;47.870;19.006;2023-12-04T06:41:47;36.00;;;18.40;;
41572;SDS011;27286;47.870;19.006;2023-12-04T06:44:13;53.72;;;21.52;;
41572;SDS011;27286;47.870;19.006;2023-12-04T06:46:39;51.30;;;22.45;;
41572;SDS011;27286;47.870;19.006;2023-12-04T06:49:06;54.20;;;24.15;;
41572;SDS011;27286;47.870;19.006;2023-12-04T06:51:33;42.92;;;20.25;;
41572;SDS011;27286;47.870;19.006;2023-12-04T06:53:58;49.90;;;22.23;;
41572;SDS011;27286;47.870;19.006;2023-12-04T06:56:24;51.45;;;23.73;;
41572;SDS011;27286;47.870;19.006;2023-12-04T06:58:49;45.67;;;21.73;;
41572;SDS011;27286;47.870;19.006;2023-12-04T07:01:15;60.58;;;25.33;;
41572;SDS011;27286;47.870;19.006;2023-12-04T07:03:40;55.65;;;26.13;;
41572;SDS011;27286;47.870;19.006;2023-12-04T07:06:06;63.60;;;28.45;;
41572;SDS011;27286;47.870;19.006;2023-12-04T07:08:31;66.10;;;29.05;;
41572;SDS011;27286;47.870;19.006;2023-12-04T07:10:57;68.22;;;31.77;;
41572;SDS011;27286;47.870;19.006;2023-12-04T07:13:22;67.40;;;30.83;;
41572;SDS011;27286;47.870;19.006;2023-12-04T07:15:48;60.20;;;29.52;;
41572;SDS011;27286;47.870;19.006;2023-12-04T07:18:13;53.53;;;28.02;;
41572;SDS011;27286;47.870;19.006;2023-12-04T07:20:38;64.40;;;29.70;;
41572;SDS011;27286;47.870;19.006;2023-12-04T07:23:04;72.30;;;33.85;;
41572;SDS011;27286;47.870;19.006;2023-12-04T07:25:29;64.28;;;33.25;;
41572;SDS011;27286;47.870;19.006;2023-12-04T07:27:54;80.22;;;37.53;;
41572;SDS011;27286;47.870;19.006;2023-12-04T07:30:20;95.22;;;42.90;;
41572;SDS011;27286;47.870;19.006;2023-12-04T07:32:45;94.28;;;45.10;;
41572;SDS011;27286;47.870;19.006;2023-12-04T07:35:11;107.97;;;48.80;;
41572;SDS011;27286;47.870;19.006;2023-12-04T07:37:37;104.70;;;47.80;;
41572;SDS011;27286;47.870;19.006;2023-12-04T07:40:02;98.63;;;44.85;;
41572;SDS011;27286;47.870;19.006;2023-12-04T07:42:30;76.45;;;34.17;;
41572;SDS011;27286;47.870;19.006;2023-12-04T07:44:56;67.90;;;28.25;;
41572;SDS011;27286;47.870;19.006;2023-12-04T07:47:21;58.20;;;26.02;;
41572;SDS011;27286;47.870;19.006;2023-12-04T07:49:47;134.52;;;60.25;;
41572;SDS011;27286;47.870;19.006;2023-12-04T07:52:13;119.20;;;53.60;;
41572;SDS011;27286;47.870;19.006;2023-12-04T07:54:38;121.65;;;53.65;;
41572;SDS011;27286;47.870;19.006;2023-12-04T07:57:04;116.05;;;49.72;;
41572;SDS011;27286;47.870;19.006;2023-12-04T07:59:29;127.28;;;63.00;;
41572;SDS011;27286;47.870;19.006;2023-12-04T08:01:55;98.90;;;48.65;;
41572;SDS011;27286;47.870;19.006;2023-12-04T08:04:21;138.50;;;59.63;;
41572;SDS011;27286;47.870;19.006;2023-12-04T08:06:46;116.68;;;54.33;;
41572;SDS011;27286;47.870;19.006;2023-12-04T08:09:12;101.72;;;52.88;;
41572;SDS011;27286;47.870;19.006;2023-12-04T08:11:37;78.88;;;39.08;;
41572;SDS011;27286;47.870;19.006;2023-12-04T08:14:03;67.70;;;33.45;;
41572;SDS011;27286;47.870;19.006;2023-12-04T08:16:28;55.85;;;27.40;;
41572;SDS011;27286;47.870;19.006;2023-12-04T08:18:54;64.25;;;28.98;;
41572;SDS011;27286;47.870;19.006;2023-12-04T08:21:20;40.17;;;16.50;;
41572;SDS011;27286;47.870;19.006;2023-12-04T08:23:45;33.75;;;18.05;;
41572;SDS011;27286;47.870;19.006;2023-12-04T08:26:11;32.15;;;16.10;;
41572;SDS011;27286;47.870;19.006;2023-12-04T08:28:36;31.75;;;15.18;;
41572;SDS011;27286;47.870;19.006;2023-12-04T08:31:06;17.52;;;9.35;;
41572;SDS011;27286;47.870;19.006;2023-12-04T08:33:35;34.97;;;13.93;;
41572;SDS011;27286;47.870;19.006;2023-12-04T08:36:00;40.03;;;16.90;;
41572;SDS011;27286;47.870;19.006;2023-12-04T08:38:26;34.15;;;16.83;;
41572;SDS011;27286;47.870;19.006;2023-12-04T08:40:52;19.45;;;10.32;;
41572;SDS011;27286;47.870;19.006;2023-12-04T08:43:18;35.60;;;15.93;;
41572;SDS011;27286;47.870;19.006;2023-12-04T08:45:44;33.10;;;15.23;;
41572;SDS011;27286;47.870;19.006;2023-12-04T08:48:10;34.00;;;17.48;;
41572;SDS011;27286;47.870;19.006;2023-12-04T08:50:35;32.85;;;17.63;;
41572;SDS011;27286;47.870;19.006;2023-12-04T08:53:01;37.97;;;17.80;;
41572;SDS011;27286;47.870;19.006;2023-12-04T08:55:27;34.17;;;17.15;;
41572;SDS011;27286;47.870;19.006;2023-12-04T08:57:53;32.03;;;19.23;;
41572;SDS011;27286;47.870;19.006;2023-12-04T09:00:19;35.55;;;19.48;;
41572;SDS011;27286;47.870;19.006;2023-12-04T09:02:44;21.33;;;12.20;;
41572;SDS011;27286;47.870;19.006;2023-12-04T09:05:10;21.85;;;12.15;;
41572;SDS011;27286;47.870;19.006;2023-12-04T09:07:35;22.80;;;11.35;;
41572;SDS011;27286;47.870;19.006;2023-12-04T09:10:01;26.85;;;13.50;;
41572;SDS011;27286;47.870;19.006;2023-12-04T09:12:27;21.95;;;11.73;;
41572;SDS011;27286;47.870;19.006;2023-12-04T09:14:52;16.65;;;10.23;;
41572;SDS011;27286;47.870;19.006;2023-12-04T09:17:18;18.52;;;10.25;;
41572;SDS011;27286;47.870;19.006;2023-12-04T09:19:45;14.43;;;9.60;;
41572;SDS011;27286;47.870;19.006;2023-12-04T09:22:10;20.15;;;11.40;;
41572;SDS011;27286;47.870;19.006;2023-12-04T09:24:36;22.75;;;10.70;;
41572;SDS011;27286;47.870;19.006;2023-12-04T09:27:01;17.13;;;9.18;;
41572;SDS011;27286;47.870;19.006;2023-12-04T09:29:27;22.35;;;12.73;;
41572;SDS011;27286;47.870;19.006;2023-12-04T09:31:52;20.58;;;10.52;;
41572;SDS011;27286;47.870;19.006;2023-12-04T09:34:18;24.17;;;10.40;;
41572;SDS011;27286;47.870;19.006;2023-12-04T09:36:45;21.90;;;13.20;;
41572;SDS011;27286;47.870;19.006;2023-12-04T09:39:11;18.95;;;11.25;;
41572;SDS011;27286;47.870;19.006;2023-12-04T09:41:37;17.45;;;9.80;;
41572;SDS011;27286;47.870;19.006;2023-12-04T09:44:04;17.70;;;9.90;;
41572;SDS011;27286;47.870;19.006;2023-12-04T09:46:31;21.00;;;10.20;;
41572;SDS011;27286;47.870;19.006;2023-12-04T09:48:58;16.90;;;8.98;;
41572;SDS011;27286;47.870;19.006;2023-12-04T09:51:24;20.02;;;10.45;;
41572;SDS011;27286;47.870;19.006;2023-12-04T09:53:52;17.20;;;9.75;;
41572;SDS011;27286;47.870;19.006;2023-12-04T09:56:17;20.17;;;10.43;;
41572;SDS011;27286;47.870;19.006;2023-12-04T09:58:44;16.92;;;9.85;;
41572;SDS011;27286;47.870;19.006;2023-12-04T10:01:11;18.73;;;11.00;;
41572;SDS011;27286;47.870;19.006;2023-12-04T10:03:37;34.85;;;19.90;;
41572;SDS011;27286;47.870;19.006;2023-12-04T10:06:04;25.42;;;15.27;;
41572;SDS011;27286;47.870;19.006;2023-12-04T10:08:31;26.92;;;12.95;;
41572;SDS011;27286;47.870;19.006;2023-12-04T10:10:56;17.63;;;10.02;;
41572;SDS011;27286;47.870;19.006;2023-12-04T10:13:21;28.88;;;14.60;;
41572;SDS011;27286;47.870;19.006;2023-12-04T10:15:48;30.65;;;13.88;;
41572;SDS011;27286;47.870;19.006;2023-12-04T10:18:28;30.48;;;16.30;;
41572;SDS011;27286;47.870;19.006;2023-12-04T10:20:58;33.60;;;19.38;;
41572;SDS011;27286;47.870;19.006;2023-12-04T10:23:40;22.27;;;13.07;;
41572;SDS011;27286;47.870;19.006;2023-12-04T10:26:07;21.17;;;14.15;;
41572;SDS011;27286;47.870;19.006;2023-12-04T10:28:33;19.88;;;11.02;;
41572;SDS011;27286;47.870;19.006;2023-12-04T10:30:59;18.77;;;10.32;;
41572;SDS011;27286;47.870;19.006;2023-12-04T10:33:25;14.00;;;8.63;;
41572;SDS011;27286;47.870;19.006;2023-12-04T10:35:53;15.15;;;9.63;;
41572;SDS011;27286;47.870;19.006;2023-12-04T10:38:20;17.85;;;11.27;;
41572;SDS011;27286;47.870;19.006;2023-12-04T10:40:46;24.92;;;13.60;;
41572;SDS011;27286;47.870;19.006;2023-12-04T10:43:16;25.55;;;13.30;;
41572;SDS011;27286;47.870;19.006;2023-12-04T10:45:47;13.40;;;9.50;;
41572;SDS011;27286;47.870;19.006;2023-12-04T10:48:14;18.52;;;11.35;;
41572;SDS011;27286;47.870;19.006;2023-12-04T10:50:42;17.90;;;11.00;;
41572;SDS011;27286;47.870;19.006;2023-12-04T10:53:13;15.45;;;9.18;;
41572;SDS011;27286;47.870;19.006;2023-12-04T10:55:40;17.42;;;11.05;;
41572;SDS011;27286;47.870;19.006;2023-12-04T10:58:07;18.33;;;10.35;;
41572;SDS011;27286;47.870;19.006;2023-12-04T11:00:34;21.35;;;12.25;;
41572;SDS011;27286;47.870;19.006;2023-12-04T11:03:07;17.15;;;10.20;;
41572;SDS011;27286;47.870;19.006;2023-12-04T11:05:37;14.65;;;9.48;;
41572;SDS011;27286;47.870;19.006;2023-12-04T11:08:05;13.40;;;8.18;;
41572;SDS011;27286;47.870;19.006;2023-12-04T11:10:32;18.60;;;10.23;;
41572;SDS011;27286;47.870;19.006;2023-12-04T11:13:06;10.95;;;7.30;;
41572;SDS011;27286;47.870;19.006;2023-12-04T11:15:39;16.08;;;9.70;;
41572;SDS011;27286;47.870;19.006;2023-12-04T11:18:07;12.75;;;8.68;;
41572;SDS011;27286;47.870;19.006;2023-12-04T11:20:39;15.80;;;10.00;;
41572;SDS011;27286;47.870;19.006;2023-12-04T11:23:09;14.35;;;8.80;;
41572;SDS011;27286;47.870;19.006;2023-12-04T11:25:35;15.73;;;10.20;;
41572;SDS011;27286;47.870;19.006;2023-12-04T11:28:01;15.77;;;7.78;;
41572;SDS011;27286;47.870;19.006;2023-12-04T11:30:28;15.68;;;8.85;;
41572;SDS011;27286;47.870;19.006;2023-12-04T11:32:55;18.45;;;10.63;;
41572;SDS011;27286;47.870;19.006;2023-12-04T11:35:25;18.13;;;8.73;;
41572;SDS011;27286;47.870;19.006;2023-12-04T11:37:51;14.55;;;7.82;;
41572;SDS011;27286;47.870;19.006;2023-12-04T11:40:18;14.75;;;8.00;;
41572;SDS011;27286;47.870;19.006;2023-12-04T11:42:43;15.85;;;10.23;;
41572;SDS011;27286;47.870;19.006;2023-12-04T11:45:09;14.48;;;9.65;;
41572;SDS011;27286;47.870;19.006;2023-12-04T11:52:47;16.65;;;9.35;;
41572;SDS011;27286;47.870;19.006;2023-12-04T11:55:16;19.90;;;12.88;;
41572;SDS011;27286;47.870;19.006;2023-12-04T11:57:45;18.30;;;10.70;;
41572;SDS011;27286;47.870;19.006;2023-12-04T12:03:08;15.55;;;10.07;;
41572;SDS011;27286;47.870;19.006;2023-12-04T12:05:34;15.77;;;9.75;;
41572;SDS011;27286;47.870;19.006;2023-12-04T12:08:01;20.83;;;11.45;;
41572;SDS011;27286;47.870;19.006;2023-12-04T12:10:28;20.88;;;12.27;;
41572;SDS011;27286;47.870;19.006;2023-12-04T12:12:54;14.93;;;10.77;;
41572;SDS011;27286;47.870;19.006;2023-12-04T12:15:20;26.05;;;12.05;;
41572;SDS011;27286;47.870;19.006;2023-12-04T12:17:46;27.45;;;15.65;;
41572;SDS011;27286;47.870;19.006;2023-12-04T12:20:12;22.13;;;13.35;;
41572;SDS011;27286;47.870;19.006;2023-12-04T12:22:39;23.65;;;11.93;;
41572;SDS011;27286;47.870;19.006;2023-12-04T12:25:08;24.75;;;14.80;;
41572;SDS011;27286;47.870;19.006;2023-12-04T12:27:34;25.45;;;14.00;;
41572;SDS011;27286;47.870;19.006;2023-12-04T12:30:00;19.13;;;10.18;;
41572;SDS011;27286;47.870;19.006;2023-12-04T12:32:26;18.75;;;11.02;;
41572;SDS011;27286;47.870;19.006;2023-12-04T12:34:52;24.77;;;12.93;;
41572;SDS011;27286;47.870;19.006;2023-12-04T12:37:17;21.85;;;11.30;;
41572;SDS011;27286;47.870;19.006;2023-12-04T12:39:44;21.48;;;13.65;;
41572;SDS011;27286;47.870;19.006;2023-12-04T12:42:10;25.75;;;17.75;;
41572;SDS011;27286;47.870;19.006;2023-12-04T12:44:39;17.60;;;7.95;;
41572;SDS011;27286;47.870;19.006;2023-12-04T12:47:08;10.43;;;7.35;;
41572;SDS011;27286;47.870;19.006;2023-12-04T12:49:34;14.13;;;8.35;;
41572;SDS011;27286;47.870;19.006;2023-12-04T12:52:01;12.30;;;6.93;;
41572;SDS011;27286;47.870;19.006;2023-12-04T12:54:26;9.75;;;6.28;;
41572;SDS011;27286;47.870;19.006;2023-12-04T12:56:52;9.90;;;7.05;;
41572;SDS011;27286;47.870;19.006;2023-12-04T12:59:17;12.00;;;6.97;;
41572;SDS011;27286;47.870;19.006;2023-12-04T13:01:43;10.40;;;7.15;;
41572;SDS011;27286;47.870;19.006;2023-12-04T13:04:08;21.42;;;11.30;;
41572;SDS011;27286;47.870;19.006;2023-12-04T13:06:38;23.60;;;13.35;;
41572;SDS011;27286;47.870;19.006;2023-12-04T13:09:04;26.73;;;15.07;;
41572;SDS011;27286;47.870;19.006;2023-12-04T13:11:31;31.70;;;17.70;;
41572;SDS011;27286;47.870;19.006;2023-12-04T13:13:56;27.45;;;15.02;;
41572;SDS011;27286;47.870;19.006;2023-12-04T13:16:22;16.98;;;9.90;;
41572;SDS011;27286;47.870;19.006;2023-12-04T13:18:48;18.13;;;8.43;;
41572;SDS011;27286;47.870;19.006;2023-12-04T13:21:13;15.45;;;6.95;;
41572;SDS011;27286;47.870;19.006;2023-12-04T13:23:38;13.32;;;7.97;;
41572;SDS011;27286;47.870;19.006;2023-12-04T13:26:04;12.32;;;7.10;;
41572;SDS011;27286;47.870;19.006;2023-12-04T13:28:30;21.70;;;9.40;;
41572;SDS011;27286;47.870;19.006;2023-12-04T13:30:56;19.73;;;9.85;;
41572;SDS011;27286;47.870;19.006;2023-12-04T13:33:21;17.13;;;8.80;;
41572;SDS011;27286;47.870;19.006;2023-12-04T13:35:46;17.15;;;8.98;;
41572;SDS011;27286;47.870;19.006;2023-12-04T13:38:12;20.00;;;8.32;;
41572;SDS011;27286;47.870;19.006;2023-12-04T13:40:41;13.68;;;8.60;;
41572;SDS011;27286;47.870;19.006;2023-12-04T13:43:14;22.50;;;11.55;;
41572;SDS011;27286;47.870;19.006;2023-12-04T13:45:58;21.65;;;12.15;;
41572;SDS011;27286;47.870;19.006;2023-12-04T13:48:24;19.33;;;11.60;;
41572;SDS011;27286;47.870;19.006;2023-12-04T13:50:49;28.63;;;14.57;;
41572;SDS011;27286;47.870;19.006;2023-12-04T13:53:15;30.30;;;17.42;;
41572;SDS011;27286;47.870;19.006;2023-12-04T13:55:41;22.35;;;13.43;;
41572;SDS011;27286;47.870;19.006;2023-12-04T13:58:34;15.68;;;9.93;;
41572;SDS011;27286;47.870;19.006;2023-12-04T14:01:10;19.27;;;10.95;;
41572;SDS011;27286;47.870;19.006;2023-12-04T14:03:42;13.35;;;8.57;;
41572;SDS011;27286;47.870;19.006;2023-12-04T14:06:08;12.82;;;7.88;;
41572;SDS011;27286;47.870;19.006;2023-12-04T14:08:34;21.20;;;12.50;;
41572;SDS011;27286;47.870;19.006;2023-12-04T14:11:01;26.58;;;13.30;;
41572;SDS011;27286;47.870;19.006;2023-12-04T14:13:27;18.13;;;9.73;;
41572;SDS011;27286;47.870;19.006;2023-12-04T14:15:53;17.15;;;9.43;;
41572;SDS011;27286;47.870;19.006;2023-12-04T14:18:19;17.38;;;9.23;;
41572;SDS011;27286;47.870;19.006;2023-12-04T14:20:45;23.40;;;9.80;;
41572;SDS011;27286;47.870;19.006;2023-12-04T14:23:10;18.50;;;10.45;;